FDX112 VTBS-VTSM
Flight info
| Callsign | FDX112 |
|---|---|
| Flight time | 0h 49m |
| Altitude | 33000 |
| Route | KASNI1G KASNI M757 MABKO W33 UPNEP |
| Aircraft | B738/M-SDE2E3FGHIRWXY/LB1 |
Departure
| Time | 2026-04-26 08:16 |
|---|---|
| Airport | Suvarnabhumi Airport (VTBS) |
Arrival
| Time | 2026-04-26 09:05 |
|---|---|
| Airport | Samui International Airport (VTSM) |
| Time | Latitude | Longitude | Altitude | Speed | Heading |
|---|---|---|---|---|---|
| 2026-04-26 08:01 | 13.70074 | 100.74636 | 12 ft | 0 kts | 104° |
| 2026-04-26 08:09 | 13.70074 | 100.74635 | 12 ft | 1 kts | 104° |
| 2026-04-26 08:09 | 13.70078 | 100.74621 | 14 ft | 3 kts | 104° |
| 2026-04-26 08:09 | 13.70083 | 100.74601 | 13 ft | 3 kts | 103° |
| 2026-04-26 08:10 | 13.70087 | 100.74580 | 12 ft | 3 kts | 99° |
| 2026-04-26 08:10 | 13.70089 | 100.74560 | 12 ft | 3 kts | 88° |
| 2026-04-26 08:10 | 13.70087 | 100.74541 | 14 ft | 3 kts | 52° |
| 2026-04-26 08:10 | 13.70080 | 100.74534 | 12 ft | 1 kts | 14° |
| 2026-04-26 08:11 | 13.70079 | 100.74534 | 12 ft | 0 kts | 14° |
| 2026-04-26 08:13 | 13.70081 | 100.74534 | 12 ft | 1 kts | 14° |
| 2026-04-26 08:13 | 13.70105 | 100.74541 | 14 ft | 6 kts | 14° |
| 2026-04-26 08:13 | 13.70153 | 100.74552 | 13 ft | 7 kts | 4° |
| 2026-04-26 08:14 | 13.70196 | 100.74531 | 14 ft | 7 kts | 308° |
| 2026-04-26 08:14 | 13.70213 | 100.74482 | 12 ft | 7 kts | 285° |
| 2026-04-26 08:14 | 13.70228 | 100.74424 | 13 ft | 10 kts | 285° |
| 2026-04-26 08:14 | 13.70248 | 100.74333 | 13 ft | 11 kts | 272° |
| 2026-04-26 08:15 | 13.70202 | 100.74275 | 14 ft | 11 kts | 197° |
| 2026-04-26 08:15 | 13.70185 | 100.74270 | 14 ft | 0 kts | 194° |
| 2026-04-26 08:16 | 13.70160 | 100.74264 | 14 ft | 23 kts | 194° |
| 2026-04-26 08:16 | 13.69657 | 100.74132 | 10 ft | 123 kts | 194° |
| 2026-04-26 08:16 | 13.68568 | 100.73838 | 166 ft | 191 kts | 196° |
| 2026-04-26 08:16 | 13.67219 | 100.73430 | 1163 ft | 206 kts | 193° |
| 2026-04-26 08:17 | 13.65826 | 100.73291 | 2512 ft | 197 kts | 182° |
| 2026-04-26 08:17 | 13.64484 | 100.73078 | 3800 ft | 201 kts | 187° |
| 2026-04-26 08:17 | 13.63026 | 100.73185 | 4462 ft | 227 kts | 160° |
| 2026-04-26 08:17 | 13.61386 | 100.73632 | 4802 ft | 261 kts | 177° |
| 2026-04-26 08:18 | 13.60535 | 100.73583 | 4992 ft | 274 kts | 189° |
| 2026-04-26 08:18 | 13.59792 | 100.73373 | 5326 ft | 276 kts | 201° |
| 2026-04-26 08:18 | 13.58180 | 100.72309 | 5812 ft | 274 kts | 218° |
| 2026-04-26 08:18 | 13.56578 | 100.71218 | 5986 ft | 281 kts | 204° |
| 2026-04-26 08:19 | 13.54755 | 100.70477 | 6004 ft | 282 kts | 198° |
| 2026-04-26 08:19 | 13.52897 | 100.69866 | 5994 ft | 279 kts | 196° |
| 2026-04-26 08:19 | 13.51032 | 100.69365 | 6001 ft | 276 kts | 186° |
| 2026-04-26 08:19 | 13.49120 | 100.69236 | 6005 ft | 275 kts | 181° |
| 2026-04-26 08:20 | 13.47207 | 100.69165 | 6393 ft | 276 kts | 180° |
| 2026-04-26 08:20 | 13.45260 | 100.69084 | 7193 ft | 283 kts | 181° |
| 2026-04-26 08:20 | 13.43285 | 100.68977 | 8121 ft | 285 kts | 182° |
| 2026-04-26 08:20 | 13.41287 | 100.68854 | 8981 ft | 290 kts | 182° |
| 2026-04-26 08:21 | 13.39257 | 100.68721 | 9627 ft | 295 kts | 182° |
| 2026-04-26 08:21 | 13.37212 | 100.68581 | 9966 ft | 296 kts | 182° |
| 2026-04-26 08:21 | 13.35158 | 100.68440 | 9986 ft | 295 kts | 182° |
| 2026-04-26 08:21 | 13.33106 | 100.68398 | 10014 ft | 296 kts | 171° |
| 2026-04-26 08:22 | 13.31185 | 100.69121 | 10002 ft | 297 kts | 146° |
| 2026-04-26 08:22 | 13.29745 | 100.70629 | 10009 ft | 297 kts | 128° |
| 2026-04-26 08:22 | 13.28240 | 100.72080 | 10015 ft | 297 kts | 144° |
| 2026-04-26 08:22 | 13.26456 | 100.73206 | 10171 ft | 311 kts | 148° |
| 2026-04-26 08:23 | 13.24521 | 100.74360 | 10488 ft | 331 kts | 148° |
| 2026-04-26 08:23 | 13.22418 | 100.75394 | 11072 ft | 341 kts | 165° |
| 2026-04-26 08:23 | 13.20054 | 100.75428 | 11848 ft | 343 kts | 192° |
| 2026-04-26 08:23 | 13.17910 | 100.74383 | 12667 ft | 345 kts | 218° |
| 2026-04-26 08:24 | 13.16287 | 100.72559 | 13447 ft | 348 kts | 231° |
| 2026-04-26 08:24 | 13.14682 | 100.70685 | 14153 ft | 353 kts | 219° |
| 2026-04-26 08:24 | 13.12595 | 100.69338 | 14805 ft | 358 kts | 203° |
| 2026-04-26 08:24 | 13.10253 | 100.68424 | 15498 ft | 362 kts | 197° |
| 2026-04-26 08:25 | 13.07803 | 100.67801 | 16200 ft | 365 kts | 186° |
| 2026-04-26 08:25 | 13.05259 | 100.67654 | 16859 ft | 368 kts | 180° |
| 2026-04-26 08:25 | 13.02680 | 100.67623 | 17440 ft | 374 kts | 180° |
| 2026-04-26 08:25 | 13.00060 | 100.67600 | 18009 ft | 379 kts | 180° |
| 2026-04-26 08:26 | 12.97406 | 100.67567 | 18574 ft | 384 kts | 180° |
| 2026-04-26 08:26 | 12.94724 | 100.67523 | 19139 ft | 388 kts | 180° |
| 2026-04-26 08:26 | 12.92014 | 100.67469 | 19676 ft | 392 kts | 180° |
| 2026-04-26 08:26 | 12.89273 | 100.67405 | 20231 ft | 395 kts | 180° |
| 2026-04-26 08:27 | 12.86506 | 100.67336 | 20768 ft | 399 kts | 180° |
| 2026-04-26 08:27 | 12.83716 | 100.67265 | 21294 ft | 403 kts | 180° |
| 2026-04-26 08:27 | 12.80940 | 100.67194 | 21776 ft | 406 kts | 180° |
| 2026-04-26 08:27 | 12.78103 | 100.67119 | 22221 ft | 410 kts | 180° |
| 2026-04-26 08:28 | 12.75195 | 100.67042 | 22671 ft | 414 kts | 180° |
| 2026-04-26 08:28 | 12.73280 | 100.66991 | 22958 ft | 417 kts | 180° |
| 2026-04-26 08:28 | 12.69420 | 100.66885 | 23522 ft | 421 kts | 180° |
| 2026-04-26 08:28 | 12.66482 | 100.66804 | 23939 ft | 424 kts | 180° |
| 2026-04-26 08:29 | 12.63520 | 100.66724 | 24328 ft | 428 kts | 180° |
| 2026-04-26 08:29 | 12.60535 | 100.66644 | 24734 ft | 431 kts | 180° |
| 2026-04-26 08:29 | 12.58505 | 100.66590 | 24986 ft | 433 kts | 180° |
| 2026-04-26 08:29 | 12.54493 | 100.66485 | 25479 ft | 437 kts | 180° |
| 2026-04-26 08:30 | 12.51446 | 100.66405 | 25865 ft | 439 kts | 180° |
| 2026-04-26 08:30 | 12.49413 | 100.66351 | 26105 ft | 441 kts | 180° |
| 2026-04-26 08:30 | 12.46336 | 100.66270 | 26457 ft | 444 kts | 180° |
| 2026-04-26 08:30 | 12.43233 | 100.66187 | 26799 ft | 447 kts | 180° |
| 2026-04-26 08:31 | 12.40116 | 100.66104 | 27172 ft | 450 kts | 180° |
| 2026-04-26 08:31 | 12.36970 | 100.66019 | 27458 ft | 454 kts | 180° |
| 2026-04-26 08:31 | 12.33796 | 100.65932 | 27821 ft | 456 kts | 180° |
| 2026-04-26 08:31 | 12.30615 | 100.65846 | 28217 ft | 457 kts | 180° |
| 2026-04-26 08:32 | 12.27445 | 100.65760 | 28677 ft | 456 kts | 180° |
| 2026-04-26 08:32 | 12.24279 | 100.65673 | 29151 ft | 454 kts | 180° |
| 2026-04-26 08:32 | 12.21120 | 100.65585 | 29559 ft | 455 kts | 180° |
| 2026-04-26 08:32 | 12.17955 | 100.65496 | 29946 ft | 455 kts | 180° |
| 2026-04-26 08:33 | 12.14787 | 100.65405 | 30376 ft | 455 kts | 180° |
| 2026-04-26 08:33 | 12.11633 | 100.65311 | 30839 ft | 453 kts | 180° |
| 2026-04-26 08:33 | 12.08487 | 100.65224 | 31323 ft | 451 kts | 179° |
| 2026-04-26 08:33 | 12.05361 | 100.65146 | 31777 ft | 449 kts | 179° |
| 2026-04-26 08:34 | 12.02236 | 100.65074 | 32173 ft | 449 kts | 179° |
| 2026-04-26 08:34 | 11.99136 | 100.65017 | 32595 ft | 447 kts | 179° |
| 2026-04-26 08:34 | 11.96034 | 100.64962 | 32858 ft | 444 kts | 179° |
| 2026-04-26 08:34 | 11.92937 | 100.64899 | 32848 ft | 445 kts | 179° |
| 2026-04-26 08:35 | 11.86783 | 100.64758 | 32866 ft | 445 kts | 179° |
| 2026-04-26 08:35 | 11.80582 | 100.64604 | 32867 ft | 447 kts | 179° |
| 2026-04-26 08:36 | 11.74358 | 100.64444 | 32857 ft | 448 kts | 179° |
| 2026-04-26 08:36 | 11.68127 | 100.64287 | 32849 ft | 447 kts | 179° |
| 2026-04-26 08:37 | 11.61908 | 100.64131 | 32851 ft | 447 kts | 179° |
| 2026-04-26 08:37 | 11.55693 | 100.63975 | 32855 ft | 446 kts | 179° |
| 2026-04-26 08:38 | 11.49487 | 100.63820 | 32852 ft | 446 kts | 179° |
| 2026-04-26 08:38 | 11.43295 | 100.63664 | 32855 ft | 445 kts | 179° |
| 2026-04-26 08:39 | 11.37184 | 100.63508 | 32827 ft | 427 kts | 179° |
| 2026-04-26 08:39 | 11.34264 | 100.63434 | 32831 ft | 413 kts | 179° |
| 2026-04-26 08:39 | 11.31440 | 100.63364 | 32825 ft | 399 kts | 179° |
| 2026-04-26 08:40 | 11.28711 | 100.63298 | 32828 ft | 386 kts | 178° |
| 2026-04-26 08:40 | 11.26071 | 100.63234 | 32827 ft | 373 kts | 178° |
| 2026-04-26 08:40 | 11.23530 | 100.63175 | 32824 ft | 360 kts | 178° |
| 2026-04-26 08:40 | 11.21038 | 100.63117 | 32853 ft | 359 kts | 178° |
| 2026-04-26 08:41 | 11.15913 | 100.62989 | 32876 ft | 377 kts | 178° |
| 2026-04-26 08:41 | 11.10599 | 100.62848 | 32861 ft | 383 kts | 178° |
| 2026-04-26 08:42 | 11.05269 | 100.62709 | 32848 ft | 382 kts | 178° |
| 2026-04-26 08:42 | 10.99983 | 100.62574 | 32843 ft | 379 kts | 178° |
| 2026-04-26 08:43 | 10.94734 | 100.62443 | 32839 ft | 375 kts | 178° |
| 2026-04-26 08:43 | 10.89559 | 100.62316 | 32822 ft | 367 kts | 178° |
| 2026-04-26 08:44 | 10.84471 | 100.62192 | 32817 ft | 369 kts | 178° |
| 2026-04-26 08:44 | 10.81870 | 100.62123 | 32277 ft | 377 kts | 178° |
| 2026-04-26 08:44 | 10.79222 | 100.62043 | 31318 ft | 386 kts | 179° |
| 2026-04-26 08:45 | 10.76477 | 100.61963 | 29988 ft | 404 kts | 179° |
| 2026-04-26 08:45 | 10.73660 | 100.61887 | 28897 ft | 414 kts | 179° |
| 2026-04-26 08:45 | 10.70782 | 100.61811 | 28138 ft | 412 kts | 179° |
| 2026-04-26 08:45 | 10.67945 | 100.61738 | 27559 ft | 405 kts | 179° |
| 2026-04-26 08:46 | 10.65148 | 100.61669 | 26961 ft | 399 kts | 179° |
| 2026-04-26 08:46 | 10.62393 | 100.61599 | 26299 ft | 395 kts | 179° |
| 2026-04-26 08:46 | 10.59660 | 100.61526 | 25613 ft | 391 kts | 179° |
| 2026-04-26 08:46 | 10.56949 | 100.61448 | 24961 ft | 388 kts | 179° |
| 2026-04-26 08:47 | 10.54268 | 100.61372 | 24337 ft | 384 kts | 178° |
| 2026-04-26 08:47 | 10.51615 | 100.61304 | 23724 ft | 379 kts | 178° |
| 2026-04-26 08:47 | 10.48994 | 100.61242 | 23099 ft | 374 kts | 179° |
| 2026-04-26 08:47 | 10.46402 | 100.61178 | 22478 ft | 370 kts | 178° |
| 2026-04-26 08:48 | 10.43844 | 100.61128 | 21895 ft | 365 kts | 178° |
| 2026-04-26 08:48 | 10.41316 | 100.61080 | 21310 ft | 361 kts | 178° |
| 2026-04-26 08:48 | 10.38818 | 100.61028 | 20713 ft | 357 kts | 179° |
| 2026-04-26 08:48 | 10.36351 | 100.60972 | 20150 ft | 353 kts | 179° |
| 2026-04-26 08:49 | 10.33912 | 100.60913 | 19586 ft | 348 kts | 179° |
| 2026-04-26 08:49 | 10.31504 | 100.60853 | 19014 ft | 344 kts | 179° |
| 2026-04-26 08:49 | 10.29119 | 100.60793 | 18443 ft | 340 kts | 179° |
| 2026-04-26 08:49 | 10.26767 | 100.60737 | 17867 ft | 337 kts | 180° |
| 2026-04-26 08:50 | 10.24432 | 100.60680 | 17294 ft | 333 kts | 179° |
| 2026-04-26 08:50 | 10.22128 | 100.60625 | 16726 ft | 330 kts | 179° |
| 2026-04-26 08:50 | 10.19847 | 100.60567 | 16155 ft | 327 kts | 179° |
| 2026-04-26 08:50 | 10.17588 | 100.60509 | 15784 ft | 322 kts | 179° |
| 2026-04-26 08:51 | 10.13147 | 100.60394 | 15290 ft | 318 kts | 179° |
| 2026-04-26 08:51 | 10.10931 | 100.60337 | 15035 ft | 318 kts | 179° |
| 2026-04-26 08:51 | 10.08723 | 100.60281 | 14793 ft | 317 kts | 179° |
| 2026-04-26 08:52 | 10.06514 | 100.60224 | 14556 ft | 318 kts | 179° |
| 2026-04-26 08:52 | 10.04303 | 100.60167 | 14300 ft | 319 kts | 179° |
| 2026-04-26 08:52 | 10.02113 | 100.60109 | 14050 ft | 319 kts | 179° |
| 2026-04-26 08:52 | 9.99877 | 100.60051 | 13796 ft | 319 kts | 179° |
| 2026-04-26 08:53 | 9.97694 | 100.59993 | 13551 ft | 318 kts | 179° |
| 2026-04-26 08:53 | 9.95484 | 100.59934 | 13296 ft | 317 kts | 179° |
| 2026-04-26 08:53 | 9.93283 | 100.59874 | 13054 ft | 316 kts | 179° |
| 2026-04-26 08:53 | 9.91087 | 100.59812 | 12804 ft | 316 kts | 179° |
| 2026-04-26 08:54 | 9.88894 | 100.59751 | 12553 ft | 314 kts | 179° |
| 2026-04-26 08:54 | 9.86725 | 100.59695 | 12296 ft | 310 kts | 178° |
| 2026-04-26 08:54 | 9.84586 | 100.59644 | 12038 ft | 305 kts | 178° |
| 2026-04-26 08:54 | 9.82472 | 100.59598 | 11789 ft | 302 kts | 179° |
| 2026-04-26 08:55 | 9.80416 | 100.59234 | 11527 ft | 301 kts | 201° |
| 2026-04-26 08:55 | 9.78703 | 100.58050 | 11284 ft | 299 kts | 220° |
| 2026-04-26 08:55 | 9.77242 | 100.56555 | 10978 ft | 297 kts | 223° |
| 2026-04-26 08:55 | 9.75819 | 100.55038 | 10647 ft | 296 kts | 223° |
| 2026-04-26 08:56 | 9.74396 | 100.53534 | 10320 ft | 295 kts | 223° |
| 2026-04-26 08:56 | 9.72975 | 100.52048 | 10064 ft | 291 kts | 222° |
| 2026-04-26 08:56 | 9.71597 | 100.50585 | 9911 ft | 284 kts | 228° |
| 2026-04-26 08:56 | 9.70741 | 100.48798 | 9635 ft | 284 kts | 257° |
| 2026-04-26 08:57 | 9.70712 | 100.46818 | 9392 ft | 282 kts | 276° |
| 2026-04-26 08:57 | 9.71019 | 100.44864 | 9119 ft | 280 kts | 277° |
| 2026-04-26 08:57 | 9.71353 | 100.42921 | 8806 ft | 280 kts | 277° |
| 2026-04-26 08:57 | 9.71678 | 100.40978 | 8520 ft | 279 kts | 277° |
| 2026-04-26 08:58 | 9.71990 | 100.39038 | 8228 ft | 278 kts | 277° |
| 2026-04-26 08:58 | 9.72294 | 100.37110 | 7942 ft | 277 kts | 277° |
| 2026-04-26 08:58 | 9.72609 | 100.35180 | 7655 ft | 279 kts | 277° |
| 2026-04-26 08:58 | 9.72927 | 100.33216 | 7370 ft | 285 kts | 277° |
| 2026-04-26 08:59 | 9.73248 | 100.31222 | 7073 ft | 288 kts | 277° |
| 2026-04-26 08:59 | 9.73549 | 100.29213 | 6736 ft | 288 kts | 272° |
| 2026-04-26 08:59 | 9.73593 | 100.27183 | 6362 ft | 289 kts | 267° |
| 2026-04-26 08:59 | 9.73549 | 100.25165 | 5995 ft | 290 kts | 266° |
| 2026-04-26 09:00 | 9.73508 | 100.23096 | 5629 ft | 290 kts | 267° |
| 2026-04-26 09:00 | 9.73487 | 100.21052 | 5252 ft | 290 kts | 267° |
| 2026-04-26 09:00 | 9.73476 | 100.19031 | 4885 ft | 290 kts | 268° |
| 2026-04-26 09:00 | 9.73470 | 100.16982 | 4518 ft | 291 kts | 268° |
| 2026-04-26 09:01 | 9.73467 | 100.14931 | 4150 ft | 290 kts | 268° |
| 2026-04-26 09:01 | 9.73433 | 100.12891 | 3786 ft | 288 kts | 261° |
| 2026-04-26 09:01 | 9.72775 | 100.11045 | 3406 ft | 274 kts | 230° |
| 2026-04-26 09:01 | 9.71454 | 100.09731 | 3098 ft | 260 kts | 211° |
| 2026-04-26 09:02 | 9.69902 | 100.08914 | 2931 ft | 241 kts | 200° |
| 2026-04-26 09:02 | 9.68409 | 100.08259 | 2530 ft | 231 kts | 200° |
| 2026-04-26 09:02 | 9.66979 | 100.07618 | 2216 ft | 221 kts | 201° |
| 2026-04-26 09:02 | 9.65620 | 100.07005 | 2088 ft | 205 kts | 200° |
| 2026-04-26 09:03 | 9.64371 | 100.06441 | 1954 ft | 190 kts | 200° |
| 2026-04-26 09:03 | 9.63174 | 100.05901 | 1461 ft | 184 kts | 200° |
| 2026-04-26 09:03 | 9.62016 | 100.05599 | 1226 ft | 164 kts | 172° |
| 2026-04-26 09:03 | 9.60947 | 100.05728 | 1066 ft | 146 kts | 173° |
| 2026-04-26 09:04 | 9.59937 | 100.05756 | 842 ft | 147 kts | 173° |
| 2026-04-26 09:04 | 9.58945 | 100.05840 | 730 ft | 141 kts | 169° |
| 2026-04-26 09:04 | 9.57959 | 100.05932 | 585 ft | 144 kts | 170° |
| 2026-04-26 09:04 | 9.56969 | 100.06028 | 408 ft | 142 kts | 170° |
| 2026-04-26 09:05 | 9.56001 | 100.06130 | 178 ft | 138 kts | 170° |
| 2026-04-26 09:05 | 9.55075 | 100.06219 | 51 ft | 125 kts | 170° |
| 2026-04-26 09:05 | 9.54318 | 100.06293 | 52 ft | 89 kts | 174° |
| 2026-04-26 09:05 | 9.53936 | 100.06328 | 52 ft | 30 kts | 175° |
| 2026-04-26 09:06 | 9.53857 | 100.06324 | 52 ft | 4 kts | 312° |
| 2026-04-26 09:06 | 9.53968 | 100.06326 | 52 ft | 26 kts | 359° |
| 2026-04-26 09:06 | 9.54150 | 100.06307 | 52 ft | 25 kts | 355° |
| 2026-04-26 09:06 | 9.54335 | 100.06289 | 52 ft | 30 kts | 354° |
| 2026-04-26 09:07 | 9.54574 | 100.06265 | 52 ft | 38 kts | 354° |
| 2026-04-26 09:07 | 9.54838 | 100.06242 | 52 ft | 38 kts | 355° |
| 2026-04-26 09:07 | 9.55039 | 100.06220 | 52 ft | 25 kts | 353° |
| 2026-04-26 09:07 | 9.55208 | 100.06205 | 52 ft | 23 kts | 355° |
| 2026-04-26 09:08 | 9.55291 | 100.06173 | 52 ft | 11 kts | 283° |
| 2026-04-26 09:08 | 9.55309 | 100.06109 | 52 ft | 9 kts | 349° |
| 2026-04-26 09:08 | 9.55334 | 100.06107 | 52 ft | 0 kts | 356° |